createdAt,value
2022-12-31T00:01:14.519Z,3.22
2022-12-31T00:03:42.403Z,4.13
2022-12-31T00:06:18.448Z,2.88
2022-12-31T00:08:45.928Z,3.83
2022-12-31T00:11:13.998Z,5.03
2022-12-31T00:13:41.308Z,3.03
2022-12-31T00:16:12.382Z,2.67
2022-12-31T00:18:40.129Z,2.83
2022-12-31T00:21:10.043Z,18.92
2022-12-31T00:23:39.736Z,3.45
2022-12-31T00:26:15.038Z,2.40
2022-12-31T00:28:42.633Z,4.57
2022-12-31T00:31:18.915Z,5.28
2022-12-31T00:33:48.216Z,3.70
2022-12-31T00:36:24.911Z,3.67
2022-12-31T00:38:55.272Z,30.20
2022-12-31T00:41:23.080Z,22.77
2022-12-31T00:43:50.651Z,2.65
2022-12-31T00:46:18.245Z,3.50
2022-12-31T00:48:45.314Z,2.65
2022-12-31T00:51:15.025Z,2.53
2022-12-31T00:53:42.487Z,2.60
2022-12-31T00:56:13.346Z,18.63
2022-12-31T00:58:40.267Z,3.42
2022-12-31T01:01:20.987Z,2.20
2022-12-31T01:03:50.009Z,1.70
2022-12-31T01:06:17.934Z,6.68
2022-12-31T01:08:45.573Z,14.38
2022-12-31T01:11:29.236Z,8.80
2022-12-31T01:14:07.001Z,17.65
2022-12-31T01:16:38.048Z,4.10
2022-12-31T01:19:08.621Z,2.20
2022-12-31T01:21:37.873Z,9.90
2022-12-31T01:24:04.883Z,11.18
2022-12-31T01:26:31.872Z,1.48
2022-12-31T01:29:00.739Z,6.20
2022-12-31T01:31:27.947Z,1.90
2022-12-31T01:33:55.283Z,2.83
2022-12-31T01:36:43.039Z,2.50
2022-12-31T01:39:11.228Z,3.70
2022-12-31T01:41:46.302Z,3.72
2022-12-31T01:44:12.960Z,5.88
2022-12-31T01:46:49.686Z,8.70
2022-12-31T01:49:28.264Z,3.03
2022-12-31T01:52:00.859Z,5.53
2022-12-31T01:54:30.778Z,5.10
2022-12-31T01:56:58.361Z,11.80
2022-12-31T01:59:28.448Z,2.05
2022-12-31T02:01:56.081Z,5.78
2022-12-31T02:04:25.313Z,4.75
2022-12-31T02:07:01.627Z,1.30
2022-12-31T02:09:29.647Z,1.27
2022-12-31T02:11:59.886Z,2.17
2022-12-31T02:14:33.908Z,3.72
2022-12-31T02:17:15.911Z,1.42
2022-12-31T02:20:01.590Z,1.83
2022-12-31T02:22:50.083Z,1.20
2022-12-31T02:25:24.330Z,12.57
2022-12-31T02:28:35.946Z,1.88
2022-12-31T02:31:21.982Z,1.38
2022-12-31T02:34:05.452Z,7.63
2022-12-31T02:36:38.372Z,60.35
2022-12-31T02:39:07.569Z,6.78
2022-12-31T02:41:52.151Z,18.92
2022-12-31T02:44:24.378Z,30.15
2022-12-31T02:47:00.817Z,19.45
2022-12-31T02:49:40.445Z,94.05
2022-12-31T02:52:16.412Z,10.90
2022-12-31T02:55:00.540Z,43.58
2022-12-31T02:57:34.296Z,11.43
2022-12-31T03:00:23.556Z,23.40
2022-12-31T03:02:52.426Z,22.45
2022-12-31T03:05:24.180Z,21.63
2022-12-31T03:07:53.830Z,15.40
2022-12-31T03:10:23.905Z,25.45
2022-12-31T03:12:51.553Z,24.35
2022-12-31T03:15:25.700Z,24.70
2022-12-31T03:18:12.965Z,12.93
2022-12-31T03:21:02.190Z,15.82
2022-12-31T03:23:40.230Z,3.53
2022-12-31T03:26:11.310Z,1.23
2022-12-31T03:28:40.251Z,1.65
2022-12-31T03:31:10.381Z,1.83
2022-12-31T03:33:39.806Z,1.30
2022-12-31T03:36:10.404Z,3.60
2022-12-31T03:38:37.508Z,1.20
2022-12-31T03:41:04.424Z,1.70
2022-12-31T03:43:31.336Z,1.25
2022-12-31T03:46:07.235Z,1.15
2022-12-31T03:48:34.045Z,1.80
2022-12-31T03:51:00.902Z,1.63
2022-12-31T03:53:30.737Z,1.70
2022-12-31T03:56:00.944Z,7.78
2022-12-31T03:58:30.822Z,1.27
2022-12-31T04:00:57.758Z,5.55
2022-12-31T04:03:26.995Z,9.32
2022-12-31T04:05:57.298Z,1.10
2022-12-31T04:08:25.394Z,1.40
2022-12-31T04:10:55.129Z,1.80
2022-12-31T04:13:21.825Z,7.78
2022-12-31T04:15:52.330Z,2.83
2022-12-31T04:18:19.114Z,1.10
2022-12-31T04:20:48.171Z,3.00
2022-12-31T04:23:15.170Z,1.52
2022-12-31T04:25:41.974Z,2.10
2022-12-31T04:28:09.356Z,1.65
2022-12-31T04:30:36.211Z,1.73
2022-12-31T04:33:03.339Z,2.35
2022-12-31T04:35:30.645Z,1.63
2022-12-31T04:37:57.611Z,1.10
2022-12-31T04:40:24.562Z,2.28
2022-12-31T04:42:53.921Z,1.02
2022-12-31T04:45:20.779Z,1.60
2022-12-31T04:47:49.394Z,0.82
2022-12-31T04:50:16.818Z,1.00
2022-12-31T04:52:43.391Z,0.85
2022-12-31T04:55:13.103Z,0.90
2022-12-31T04:57:43.249Z,1.00
2022-12-31T05:00:10.996Z,0.85
2022-12-31T05:02:40.354Z,5.68
2022-12-31T05:05:10.613Z,0.80
2022-12-31T05:07:39.391Z,1.10
2022-12-31T05:10:06.797Z,0.93
2022-12-31T05:12:36.442Z,0.85
2022-12-31T05:15:04.058Z,0.90
2022-12-31T05:17:30.745Z,0.80
2022-12-31T05:19:58.079Z,1.77
2022-12-31T05:22:30.735Z,2.80
2022-12-31T05:25:01.002Z,1.35
2022-12-31T05:27:31.267Z,1.10
2022-12-31T05:29:58.373Z,0.90
2022-12-31T05:32:25.292Z,1.23
2022-12-31T05:34:54.161Z,1.10
2022-12-31T05:37:23.608Z,0.93
2022-12-31T05:39:50.705Z,0.65
2022-12-31T05:42:17.853Z,0.90
2022-12-31T05:44:47.687Z,1.25
2022-12-31T05:47:15.758Z,0.77
2022-12-31T05:49:42.857Z,1.10
2022-12-31T05:52:20.993Z,1.02
2022-12-31T05:54:52.826Z,1.13
2022-12-31T05:57:23.020Z,1.33
2022-12-31T05:59:53.875Z,1.20
2022-12-31T06:04:48.003Z,2.60
2022-12-31T06:07:17.361Z,1.13
2022-12-31T06:09:44.464Z,1.20
2022-12-31T06:12:11.559Z,1.50
2022-12-31T06:14:45.805Z,1.05
2022-12-31T06:17:13.852Z,1.10
2022-12-31T06:19:41.148Z,0.98
2022-12-31T06:22:11.771Z,0.85
2022-12-31T06:24:38.496Z,0.85
2022-12-31T06:30:02.884Z,1.65
2022-12-31T06:32:37.840Z,0.90
2022-12-31T06:35:23.130Z,1.13
2022-12-31T06:38:13.308Z,1.00
2022-12-31T06:49:37.531Z,0.90
2022-12-31T06:52:04.793Z,0.98
2022-12-31T06:54:31.669Z,1.00
2022-12-31T06:56:59.266Z,1.17
2022-12-31T06:59:29.032Z,1.55
2022-12-31T07:02:25.753Z,0.90
2022-12-31T07:04:59.400Z,1.00
2022-12-31T07:07:43.945Z,1.00
2022-12-31T07:10:35.618Z,1.00
2022-12-31T07:13:11.471Z,1.10
2022-12-31T07:16:01.964Z,1.27
2022-12-31T07:19:00.972Z,1.02
2022-12-31T07:21:37.636Z,1.00
2022-12-31T07:27:09.242Z,1.70
2022-12-31T07:30:12.212Z,1.30
2022-12-31T07:32:58.691Z,1.10
2022-12-31T07:35:56.356Z,1.20
2022-12-31T07:38:59.600Z,2.17
2022-12-31T07:41:53.957Z,1.15
2022-12-31T07:44:32.879Z,1.20
2022-12-31T07:47:06.759Z,0.90
2022-12-31T07:49:34.090Z,1.00
2022-12-31T07:52:01.021Z,1.00
2022-12-31T07:54:27.958Z,1.00
2022-12-31T07:56:54.831Z,1.30
2022-12-31T07:59:47.988Z,3.08
2022-12-31T08:02:49.819Z,1.20
2022-12-31T08:05:40.033Z,1.13
2022-12-31T08:08:24.002Z,1.02
2022-12-31T08:13:21.327Z,1.23
2022-12-31T08:15:56.548Z,3.08
2022-12-31T08:18:23.483Z,2.22
2022-12-31T08:21:07.805Z,1.35
2022-12-31T08:24:07.260Z,2.17
2022-12-31T08:26:53.042Z,1.98
2022-12-31T08:29:45.160Z,1.52
2022-12-31T08:32:38.858Z,1.23
2022-12-31T08:35:52.012Z,1.20
2022-12-31T08:38:28.452Z,1.50
2022-12-31T08:41:04.077Z,1.08
2022-12-31T08:44:00.942Z,0.88
2022-12-31T08:47:08.621Z,1.30
2022-12-31T08:49:38.128Z,1.10
2022-12-31T08:52:19.535Z,0.85
2022-12-31T08:54:46.886Z,1.15
2022-12-31T09:00:15.361Z,1.50
2022-12-31T09:03:00.228Z,1.90
2022-12-31T09:05:55.352Z,2.42
2022-12-31T09:08:46.144Z,1.42
2022-12-31T09:11:23.194Z,1.10
2022-12-31T09:14:02.815Z,1.40
2022-12-31T09:16:50.840Z,2.67
2022-12-31T09:19:22.230Z,2.92
2022-12-31T09:21:49.687Z,1.67
2022-12-31T09:24:16.940Z,1.50
2022-12-31T09:27:27.599Z,2.08
2022-12-31T09:30:06.899Z,1.50
2022-12-31T09:32:54.072Z,1.77
2022-12-31T09:35:42.482Z,1.23
2022-12-31T09:38:29.915Z,1.60
2022-12-31T09:41:08.954Z,1.80
2022-12-31T09:44:05.428Z,2.08
2022-12-31T09:47:13.833Z,2.70
2022-12-31T09:50:08.205Z,2.70
2022-12-31T09:52:58.785Z,1.90
2022-12-31T09:55:41.821Z,2.53
2022-12-31T09:58:43.168Z,2.25
2022-12-31T10:01:18.652Z,3.00
2022-12-31T10:04:08.407Z,5.22
2022-12-31T10:06:53.652Z,2.42
2022-12-31T10:09:39.347Z,2.13
2022-12-31T10:12:43.110Z,2.00
2022-12-31T10:15:29.513Z,2.90
2022-12-31T10:18:28.790Z,2.00
2022-12-31T10:21:13.626Z,2.30
2022-12-31T10:24:16.242Z,2.42
2022-12-31T10:27:11.691Z,1.23
2022-12-31T10:30:17.544Z,2.38
2022-12-31T10:35:50.959Z,2.08
2022-12-31T10:39:12.428Z,1.70
2022-12-31T10:41:52.819Z,1.92
2022-12-31T10:45:02.961Z,1.35
2022-12-31T10:48:03.324Z,2.83
2022-12-31T10:53:41.957Z,2.13
2022-12-31T10:57:00.253Z,1.67
2022-12-31T10:59:39.226Z,1.10
2022-12-31T11:02:49.189Z,1.40
2022-12-31T11:08:38.370Z,1.23
2022-12-31T11:14:50.845Z,2.30
2022-12-31T11:17:23.581Z,2.50
2022-12-31T11:20:07.624Z,1.75
2022-12-31T11:22:48.567Z,2.13
2022-12-31T11:25:41.713Z,3.88
2022-12-31T11:28:23.989Z,1.48
2022-12-31T11:31:18.479Z,1.70
2022-12-31T11:34:10.683Z,5.72
2022-12-31T11:36:52.530Z,2.80
2022-12-31T11:39:56.289Z,1.65
2022-12-31T11:42:41.375Z,1.48
2022-12-31T11:45:11.020Z,1.52
2022-12-31T11:48:30.514Z,3.83
2022-12-31T11:51:20.004Z,1.80
2022-12-31T11:54:20.802Z,1.70
2022-12-31T11:57:26.104Z,1.77
2022-12-31T11:59:58.467Z,1.55
2022-12-31T12:02:37.928Z,1.70
2022-12-31T12:05:11.097Z,2.90
2022-12-31T12:07:41.407Z,3.47
2022-12-31T12:10:35.748Z,1.80
2022-12-31T12:13:20.416Z,1.88
2022-12-31T12:15:52.336Z,1.55
2022-12-31T12:18:56.079Z,1.48
2022-12-31T12:21:25.228Z,2.33
2022-12-31T12:24:01.378Z,3.63
2022-12-31T12:26:38.458Z,1.88
2022-12-31T12:29:28.582Z,3.00
2022-12-31T12:32:00.841Z,3.17
2022-12-31T12:34:37.105Z,3.67
2022-12-31T12:37:04.240Z,1.58
2022-12-31T12:39:33.754Z,3.40
2022-12-31T12:42:16.332Z,1.20
2022-12-31T12:44:43.123Z,1.23
2022-12-31T12:47:16.752Z,1.10
2022-12-31T12:49:49.446Z,1.65
2022-12-31T12:52:31.161Z,1.50
2022-12-31T12:55:35.811Z,2.05
2022-12-31T12:58:38.441Z,2.80
2022-12-31T13:01:37.011Z,1.83
2022-12-31T13:04:40.474Z,1.65
2022-12-31T13:07:36.874Z,2.65
2022-12-31T13:10:20.460Z,1.20
2022-12-31T13:13:23.741Z,1.70
2022-12-31T13:16:21.398Z,1.98
2022-12-31T13:19:03.337Z,4.25
2022-12-31T13:21:42.512Z,2.05
2022-12-31T13:24:15.190Z,2.15
2022-12-31T13:26:55.353Z,2.67
2022-12-31T13:29:26.074Z,1.60
2022-12-31T13:31:57.069Z,1.42
2022-12-31T13:34:30.297Z,2.10
2022-12-31T13:37:03.562Z,2.92
2022-12-31T13:39:36.386Z,2.90
2022-12-31T13:42:12.483Z,2.65
2022-12-31T13:45:00.490Z,2.67
2022-12-31T13:47:33.747Z,4.60
2022-12-31T13:50:37.205Z,2.00
2022-12-31T13:53:13.823Z,2.88
2022-12-31T13:55:46.261Z,2.67
2022-12-31T13:58:13.063Z,1.80
2022-12-31T14:01:07.081Z,1.63
2022-12-31T14:03:45.876Z,3.10
2022-12-31T14:06:34.154Z,1.65
2022-12-31T14:09:01.212Z,2.13
2022-12-31T14:12:20.000Z,2.25
2022-12-31T14:14:55.658Z,2.60
2022-12-31T14:17:25.099Z,2.13
2022-12-31T14:20:07.383Z,1.90
2022-12-31T14:23:19.361Z,3.20
2022-12-31T14:25:57.728Z,3.35
2022-12-31T14:28:38.342Z,1.70
2022-12-31T14:31:29.926Z,1.92
2022-12-31T14:34:05.284Z,3.33
2022-12-31T14:36:57.097Z,2.03
2022-12-31T14:39:40.120Z,4.63
2022-12-31T14:42:23.568Z,2.60
2022-12-31T14:45:30.709Z,5.13
2022-12-31T14:48:07.304Z,2.50
2022-12-31T14:50:34.925Z,4.50
2022-12-31T14:53:04.419Z,3.83
2022-12-31T14:55:35.421Z,2.30
2022-12-31T14:58:28.431Z,2.15
2022-12-31T15:00:56.835Z,2.50
2022-12-31T15:03:45.579Z,8.32
2022-12-31T15:06:24.780Z,2.85
2022-12-31T15:09:08.587Z,2.40
2022-12-31T15:11:57.215Z,2.50
2022-12-31T15:14:55.929Z,4.30
2022-12-31T15:17:43.385Z,7.28
2022-12-31T15:20:22.282Z,7.57
2022-12-31T15:22:53.813Z,4.38
2022-12-31T15:25:36.775Z,3.58
2022-12-31T15:28:21.827Z,3.22
2022-12-31T15:30:49.736Z,4.55
2022-12-31T15:33:31.090Z,12.07
2022-12-31T15:35:58.325Z,3.80
2022-12-31T15:38:32.873Z,2.97
2022-12-31T15:41:00.213Z,2.97
2022-12-31T15:43:39.789Z,2.70
2022-12-31T15:46:27.729Z,2.55
2022-12-31T15:49:04.440Z,2.70
2022-12-31T15:51:54.742Z,3.20
2022-12-31T15:54:36.640Z,4.95
2022-12-31T15:57:09.202Z,8.02
2022-12-31T15:59:38.222Z,10.48
2022-12-31T16:02:17.220Z,9.20
2022-12-31T16:04:45.166Z,6.85
2022-12-31T16:07:12.724Z,7.32
2022-12-31T16:09:39.942Z,8.93
2022-12-31T16:12:16.030Z,7.55
2022-12-31T16:14:50.850Z,9.32
2022-12-31T16:17:28.133Z,7.05
2022-12-31T16:22:36.073Z,7.88
2022-12-31T16:25:30.322Z,6.25
2022-12-31T16:27:52.938Z,19.77
2022-12-31T16:30:23.289Z,6.40
2022-12-31T16:32:50.925Z,10.48
2022-12-31T16:35:25.446Z,12.50
2022-12-31T16:38:22.949Z,17.63
2022-12-31T16:41:08.901Z,22.77
2022-12-31T16:43:40.991Z,9.27
2022-12-31T16:46:34.737Z,11.35
2022-12-31T16:49:19.264Z,11.75
2022-12-31T16:51:45.928Z,15.27
2022-12-31T16:54:25.793Z,9.55
2022-12-31T16:56:52.569Z,6.90
2022-12-31T16:59:27.211Z,8.98
2022-12-31T17:02:00.042Z,8.38
2022-12-31T17:04:26.937Z,9.30
2022-12-31T17:06:53.438Z,8.32
2022-12-31T17:09:22.813Z,10.98
2022-12-31T17:12:14.558Z,10.07
2022-12-31T17:14:51.477Z,11.63
2022-12-31T17:17:23.675Z,17.77
2022-12-31T17:19:55.811Z,18.17
2022-12-31T17:22:37.444Z,9.75
2022-12-31T17:25:15.577Z,13.85
2022-12-31T17:27:53.489Z,13.75
2022-12-31T17:30:20.011Z,13.80
2022-12-31T17:32:48.729Z,11.30
2022-12-31T17:35:34.290Z,17.63
2022-12-31T17:38:23.004Z,8.05
2022-12-31T17:40:55.026Z,10.02
2022-12-31T17:43:23.635Z,11.18
2022-12-31T17:45:54.506Z,8.07
2022-12-31T17:50:55.153Z,15.68
2022-12-31T17:53:22.023Z,26.15
2022-12-31T17:55:51.332Z,9.75
2022-12-31T17:58:29.268Z,11.27
2022-12-31T18:00:57.030Z,10.25
2022-12-31T18:03:23.612Z,9.23
2022-12-31T18:05:50.353Z,7.78
2022-12-31T18:08:16.806Z,9.05
2022-12-31T18:10:44.806Z,27.88
2022-12-31T18:13:17.442Z,16.15
2022-12-31T18:15:44.757Z,9.35
2022-12-31T18:18:33.669Z,10.63
2022-12-31T18:21:05.375Z,13.55
2022-12-31T18:23:46.129Z,10.80
2022-12-31T18:26:18.339Z,13.27
2022-12-31T18:28:45.492Z,11.77
2022-12-31T18:31:19.856Z,13.52
2022-12-31T18:33:47.183Z,13.63
2022-12-31T18:36:17.633Z,19.73
2022-12-31T18:38:47.247Z,21.25
2022-12-31T18:41:21.428Z,25.77
2022-12-31T18:43:48.678Z,22.00
2022-12-31T18:46:21.351Z,20.13
2022-12-31T18:48:48.257Z,27.88
2022-12-31T18:51:29.623Z,28.77
2022-12-31T18:54:00.135Z,28.73
2022-12-31T18:56:26.846Z,26.92
2022-12-31T18:58:53.607Z,23.90
2022-12-31T19:01:27.901Z,24.00
2022-12-31T19:04:00.113Z,36.05
2022-12-31T19:06:27.375Z,21.45
2022-12-31T19:08:54.164Z,24.55
2022-12-31T19:11:21.638Z,21.05
2022-12-31T19:13:48.803Z,24.23
2022-12-31T19:16:15.572Z,16.80
2022-12-31T19:18:42.308Z,22.33
2022-12-31T19:21:21.035Z,38.97
2022-12-31T19:23:47.724Z,22.77
2022-12-31T19:26:17.088Z,27.48
2022-12-31T19:28:45.205Z,41.55
2022-12-31T19:31:12.510Z,20.92
2022-12-31T19:33:39.287Z,20.00
2022-12-31T19:36:09.604Z,18.75
2022-12-31T19:38:36.053Z,18.45
2022-12-31T19:41:02.839Z,15.65
2022-12-31T19:43:29.440Z,16.20
2022-12-31T19:45:58.208Z,19.77
2022-12-31T19:48:32.296Z,17.33
2022-12-31T19:50:59.415Z,30.05
2022-12-31T19:53:30.733Z,16.42
2022-12-31T19:55:57.373Z,11.40
2022-12-31T19:58:26.593Z,10.88
2022-12-31T20:01:01.703Z,14.40
2022-12-31T20:03:28.886Z,13.00
2022-12-31T20:06:25.074Z,12.63
2022-12-31T20:08:51.607Z,13.10
2022-12-31T20:11:20.869Z,14.10
2022-12-31T20:13:49.525Z,14.23
2022-12-31T20:16:18.930Z,14.40
2022-12-31T20:18:47.062Z,17.73
2022-12-31T20:21:20.443Z,29.40
2022-12-31T20:23:48.960Z,22.35
2022-12-31T20:26:15.992Z,26.55
2022-12-31T20:28:42.576Z,20.33
2022-12-31T20:31:11.911Z,17.55
2022-12-31T20:33:38.757Z,15.43
2022-12-31T20:36:07.766Z,18.95
2022-12-31T20:38:34.551Z,15.18
2022-12-31T20:41:06.065Z,14.30
2022-12-31T20:43:34.110Z,10.18
2022-12-31T20:46:10.951Z,10.55
2022-12-31T20:48:41.482Z,13.95
2022-12-31T20:51:08.096Z,11.93
2022-12-31T20:53:35.762Z,14.18
2022-12-31T20:56:07.273Z,15.57
2022-12-31T20:58:34.925Z,15.05
2022-12-31T21:01:05.274Z,16.17
2022-12-31T21:06:19.603Z,28.13
2022-12-31T21:08:46.743Z,20.00
2022-12-31T21:11:32.931Z,22.25
2022-12-31T21:14:00.443Z,11.30
2022-12-31T21:16:28.267Z,20.88
2022-12-31T21:18:55.090Z,12.07
2022-12-31T21:21:22.058Z,17.40
2022-12-31T21:23:48.737Z,11.93
2022-12-31T21:26:15.571Z,14.93
2022-12-31T21:28:43.016Z,11.60
2022-12-31T21:31:13.181Z,18.95
2022-12-31T21:33:43.317Z,17.40
2022-12-31T21:36:10.049Z,16.08
2022-12-31T21:38:37.104Z,13.07
2022-12-31T21:41:05.702Z,13.15
2022-12-31T21:43:32.322Z,10.25
2022-12-31T21:46:01.206Z,11.32
2022-12-31T21:48:27.901Z,12.80
2022-12-31T21:51:08.126Z,16.45
2022-12-31T21:53:37.168Z,17.52
2022-12-31T21:56:16.138Z,13.30
2022-12-31T21:59:08.541Z,12.70
2022-12-31T22:01:53.271Z,8.73
2022-12-31T22:04:59.758Z,8.57
2022-12-31T22:07:06.461Z,9.40
2022-12-31T22:09:33.227Z,10.70
2022-12-31T22:11:59.943Z,43.95
2022-12-31T22:14:26.524Z,8.77
2022-12-31T22:16:55.930Z,19.33
2022-12-31T22:19:22.653Z,14.48
2022-12-31T22:21:49.373Z,15.57
2022-12-31T22:24:18.442Z,27.67
2022-12-31T22:26:46.941Z,13.55
2022-12-31T22:29:13.831Z,21.63
2022-12-31T22:31:40.782Z,12.80
2022-12-31T22:34:07.649Z,28.38
2022-12-31T22:36:34.319Z,23.00
2022-12-31T22:39:00.864Z,20.95
2022-12-31T22:41:28.257Z,13.45
2022-12-31T22:44:03.713Z,12.52
2022-12-31T22:46:32.359Z,11.25
2022-12-31T22:49:00.142Z,12.35
2022-12-31T22:51:54.985Z,19.73
2022-12-31T22:54:14.561Z,31.15
2022-12-31T22:56:41.534Z,37.28
2022-12-31T22:59:08.664Z,101.60
2022-12-31T23:01:35.488Z,209.00
2022-12-31T23:04:02.349Z,315.92
2022-12-31T23:06:29.453Z,662.67
2022-12-31T23:09:14.566Z,389.75
2022-12-31T23:11:41.370Z,509.55
2022-12-31T23:14:38.074Z,440.73
2022-12-31T23:17:29.641Z,325.25
2022-12-31T23:20:17.395Z,266.05
2022-12-31T23:23:02.388Z,174.45
2022-12-31T23:25:35.374Z,121.93
2022-12-31T23:28:02.369Z,140.60
2022-12-31T23:30:29.311Z,132.63
2022-12-31T23:32:55.912Z,122.88
2022-12-31T23:35:25.635Z,116.35
2022-12-31T23:37:52.213Z,115.97
2022-12-31T23:40:21.435Z,127.93
2022-12-31T23:42:49.788Z,120.57
2022-12-31T23:45:16.745Z,123.07
2022-12-31T23:47:43.438Z,110.30
2022-12-31T23:50:10.075Z,115.97
2022-12-31T23:52:36.800Z,117.03
2022-12-31T23:55:03.743Z,114.30
2022-12-31T23:57:30.544Z,113.40
2022-12-31T23:59:57.084Z,110.25
